« Back
NWS Peachtree City, Ga » Text Product » MCN Terminal Aerodrome Forecast


Printer-friendly Version
Current Version              Previous Versions:   1  2  3  4  5  6  7  8  9  

Terminal Aerodrome Forecast

591
FTUS42 KFFC 292000 AAA
TAFMCN
TAF AMD
KMCN 292000Z 2920/3018 19007KT P6SM VCSH SCT025 BKN035 BKN120
     FM292300 25007KT P6SM SCT045 BKN100
     FM300200 31006KT P6SM SCT100
     FM300600 35005KT P6SM SKC=

USA.gov is the U.S. government's official web portal to all federal, state and local government web resources and services.